Flight Track Log - Related Links

Times and Time Zones

All times are in EDT time to prevent confusion due to time zone crossing. See the UAL594 flight status page for this flight to view local times or setup timezone preferences in your user account.

Time Position Orientation Groundspeed Altitude Reporting Facility
EDT Latitude Longitude Course Direction KTS MPH feet Rate Location/Type
Fri 06:14:21 AM 38.9500 -77.5333 303° West 176 203 2,200  Level Potomac TRACON
Fri 06:15:21 AM 38.9333 -77.6000 252° West 201 231 4,700 2,434 Climbing Potomac TRACON
Fri 06:16:00 AM 38.8807 -77.8185 260° West  Level FlightAware Approximate
Fri 06:16:07 AM 38.9122 -77.6564 244° Southwest 222 255 6,500  Level Washington Center
Fri 06:17:00 AM 38.8757 -77.9437 293° West  Level FlightAware Approximate
Fri 06:17:07 AM 38.8981 -77.7522 259° West 251 289 9,800  Level Washington Center
Fri 06:18:00 AM 38.9082 -78.0659 288° West  Level FlightAware Approximate
Fri 06:18:07 AM 38.9111 -77.8433 280° West 285 328 11,400  Level Washington Center
Fri 06:19:00 AM 38.9432 -78.1864 303° West  Level FlightAware Approximate
Fri 06:19:07 AM 38.9275 -77.9717 279° West 317 365 13,500  Level Washington Center
Fri 06:20:07 AM 38.9458 -78.0953 281° West 339 390 15,800 2,300 Climbing Washington Center
Fri 06:21:07 AM 38.9619 -78.2211 279° West 355 409 18,100 2,350 Climbing Washington Center
Fri 06:22:07 AM 38.9650 -78.3522 272° West 360 414 20,500 1,850 Climbing Washington Center
Fri 06:23:07 AM 38.9703 -78.4858 273° West 371 427 21,800 1,600 Climbing Washington Center
Fri 06:24:07 AM 38.9731 -78.6247 272° West 382 440 23,700 1,600 Climbing Washington Center
Fri 06:25:07 AM 38.9778 -78.7664 272° West 388 447 25,000 1,350 Climbing Washington Center
Fri 06:26:07 AM 38.9825 -78.9056 273° West 393 452 26,400 1,000 Climbing Washington Center
Fri 06:27:07 AM 38.9847 -79.0472 271° West 399 459 27,000 250 Climbing Washington Center
Fri 06:28:07 AM 38.9908 -79.1944 273° West 410 472 26,900 200 Descending Washington Center
Fri 06:29:07 AM 38.9928 -79.3333 271° West 405 466 27,400 550 Climbing Washington Center
Fri 06:30:07 AM 38.9967 -79.4753 272° West 405 466 28,000 235 Climbing Washington Center
Fri 06:31:40 AM 38.9964 -79.6719 270° West 390 449 28,000  Level Indianapolis Center
Fri 06:32:40 AM 38.9994 -79.8072 272° West 390 449 28,000 -50 Level Indianapolis Center
Fri 06:33:41 AM 39.0019 -79.9686 271° West 388 447 27,900 -49 Descending Indianapolis Center
Fri 06:34:42 AM 39.0039 -80.1003 271° West 381 438 27,900  Level Indianapolis Center
Fri 06:35:42 AM 39.0061 -80.2242 271° West 387 445 27,900 50 Level Indianapolis Center
Fri 06:36:43 AM 39.0083 -80.3622 271° West 387 445 28,000 49 Climbing Indianapolis Center
Fri 06:37:44 AM 39.0167 -80.5272 274° West 390 449 28,000 197 Level Indianapolis Center
Fri 06:38:45 AM 39.0728 -80.6542 300° West 410 472 28,400 694 Climbing Indianapolis Center
Fri 06:39:45 AM 39.1283 -80.7792 300° West 407 468 29,400 1,091 Climbing Indianapolis Center
Fri 06:40:46 AM 39.1858 -80.9086 300° West 416 479 30,600 1,131 Climbing Indianapolis Center
Fri 06:41:47 AM 39.2461 -81.0392 301° West 424 488 31,700 1,041 Climbing Indianapolis Center
Fri 06:42:47 AM 39.3056 -81.1714 300° West 428 493 32,700 595 Climbing Indianapolis Center
Fri 06:43:48 AM 39.3631 -81.3044 299° West 426 490 32,900 98 Climbing Indianapolis Center
Fri 06:44:49 AM 39.4225 -81.4356 300° West 425 489 32,900 49 Level Indianapolis Center
Fri 06:45:50 AM 39.4808 -81.5700 299° West 430 495 33,000 50 Climbing Indianapolis Center
Fri 06:46:50 AM 39.5392 -81.7039 299° West 429 494 33,000 -50 Level Indianapolis Center
Fri 06:47:51 AM 39.5986 -81.8375 300° West 429 494 32,900  Descending Indianapolis Center
Fri 06:48:52 AM 39.6556 -81.9728 299° West 428 493 33,000 492 Climbing Indianapolis Center
Fri 06:49:53 AM 39.7189 -82.1169 300° West 424 488 33,900 446 Climbing Indianapolis Center
Fri 06:50:53 AM 39.7750 -82.2486 299° West 415 478 33,900  Level Indianapolis Center
Fri 06:51:54 AM 39.8333 -82.3831 299° West 420 483 33,900  Level Indianapolis Center
Fri 06:52:55 AM 39.8900 -82.5178 299° West 423 487 33,900  Level Indianapolis Center
Fri 06:53:56 AM 39.9472 -82.6519 299° West 421 484 33,900  Level Indianapolis Center
Fri 06:54:57 AM 40.0044 -82.7861 301° West 422 486 33,900  Level Indianapolis Center
Fri 06:55:00 AM 40.0044 -82.7779 301° West  Level FlightAware Approximate
Fri 06:55:57 AM 40.0614 -82.9203 299° West 421 484 33,900  Level Indianapolis Center
Fri 06:56:58 AM 40.1175 -83.0547 299° West 420 483 33,900  Level Indianapolis Center
Fri 06:57:59 AM 40.1750 -83.1914 299° West 426 490 33,900  Level Indianapolis Center
Fri 06:59:00 AM 40.2314 -83.3283 298° West 428 493 33,900  Level Indianapolis Center
Fri 07:00:00 AM 40.2883 -83.4647 299° West 427 491 33,900 -33 Level Indianapolis Center
Fri 07:01:00 AM 40.3448 -83.5856 298° West  Level FlightAware Approximate
Fri 07:02:02 AM 40.4008 -83.7386 298° West 427 491 33,800  Level Indianapolis Center
Fri 07:03:03 AM 40.4578 -83.8781 298° West 429 494 32,700 -1,230 Descending Indianapolis Center
Fri 07:04:04 AM 40.5250 -84.0431 298° West 437 503 31,300 -1,289 Descending Indianapolis Center
Fri 07:05:04 AM 40.5842 -84.1911 298° West 451 519 30,100 -694 Descending Indianapolis Center
Fri 07:06:05 AM 40.6444 -84.3406 298° West 458 527 29,900 -98 Descending Indianapolis Center
Fri 07:07:06 AM 40.7050 -84.4917 298° West 463 533 29,900  Level Indianapolis Center
Fri 07:08:07 AM 40.7642 -84.6436 297° West 462 532 29,900 -49 Level Indianapolis Center
Fri 07:09:08 AM 40.8242 -84.7944 298° West 462 532 29,800 -393 Descending Indianapolis Center
Fri 07:10:09 AM 40.8814 -84.9400 298° West 450 518 29,100 -814 Descending Indianapolis Center
Fri 07:11:06 AM 40.9292 -85.0578 298° West 424 488 28,200 -915 Descending Chicago Center
Fri 07:12:07 AM 40.9814 -85.1872 298° West 408 470 27,300 -934 Descending Chicago Center
Fri 07:13:08 AM 41.0539 -85.3050 309° West 412 474 26,300 -942 Descending Chicago Center
Fri 07:14:08 AM 41.1167 -85.4208 306° West 403 464 25,400 -942 Descending Chicago Center
Fri 07:15:09 AM 41.1586 -85.5419 295° West 375 432 24,400 -738 Descending Chicago Center
Fri 07:16:10 AM 41.2014 -85.6647 295° West 364 419 23,900 -197 Descending Chicago Center
Fri 07:17:11 AM 41.2503 -85.8011 296° West 396 456 24,000  Climbing Chicago Center
Fri 07:18:12 AM 41.2747 -85.9381 283° West 378 435 23,900 -541 Descending Chicago Center
Fri 07:19:13 AM 41.2867 -86.0708 277° West 363 418 22,900 -1,426 Descending Chicago Center
Fri 07:20:14 AM 41.3033 -86.2022 280° West 358 412 21,000 -934 Descending Chicago Center
Fri 07:21:15 AM 41.3183 -86.3319 279° West 355 409 21,000 -443 Level Chicago Center
Fri 07:22:16 AM 41.3892 -86.4494 309° West 419 482 20,100 -1,918 Descending Chicago Center
Fri 07:23:17 AM 41.4869 -86.5756 316° Northwest 409 471 17,100 -3,049 Descending Chicago Center
Fri 07:24:18 AM 41.5622 -86.6711 316° Northwest 379 436 13,900 -2,557 Descending Chicago Center
Fri 07:25:19 AM 41.6278 -86.7564 316° Northwest 365 420 11,900 -934 Descending Chicago Center
Fri 07:26:20 AM 41.7269 -86.8050 340° North 398 458 12,000 -197 Climbing Chicago Center
Fri 07:27:21 AM 41.8608 -86.8311 352° North 406 467 11,500 -492 Descending Chicago Center
Fri 07:28:22 AM 41.9419 -86.9153 322° Northwest 373 429 11,000 -590 Descending Chicago Center
Fri 07:29:23 AM 41.9706 -87.0244 289° West 322 371 10,300 -341 Descending Chicago Center
Fri 07:30:25 AM 41.9683 -87.1200 268° West 262 302 10,300 -98 Level Chicago Center
Fri 07:31:26 AM 41.9689 -87.1942 271° West 204 235 10,100 -590 Descending Chicago Center
Fri 07:32:27 AM 41.9686 -87.2572 270° West 175 201 9,100 -934 Descending Chicago Center
Fri 07:33:28 AM 41.9692 -87.3181 271° West 165 190 8,200 -885 Descending Chicago Center
Fri 07:34:29 AM 41.9692 -87.3742 270° West 153 176 7,300 -811 Descending Chicago Center
Fri 07:35:19 AM 41.9667 -87.4167 265° West 149 171 6,700 -519 Descending Chicago TRACON
Fri 07:36:13 AM 41.9667 -87.4833 270° West 149 171 6,400 -368 Descending Chicago TRACON
Fri 07:37:13 AM 41.9667 -87.5333 270° West 147 169 6,000 -600 Descending Chicago TRACON
Fri 07:38:13 AM 41.9667 -87.5833 270° West 148 170 5,200 -850 Descending Chicago TRACON
Fri 07:39:13 AM 41.9667 -87.6333 270° West 145 167 4,300 -850 Descending Chicago TRACON
Fri 07:40:13 AM 41.9667 -87.7000 270° West 150 173 3,500 -800 Descending Chicago TRACON

Login

Don't have an account? Register now (free) for customized features, flight alerts, and more!